Terminal Aerodrome Forecast
Issued by NWS

Home | Current Version | Previous Version | Text Only | Print | Product List | Glossary On
Versions: 1 2 3 4 5 6 7 8 9 10 11 12 13 14 15 16 17 18 19 20 21 22 23 24 25 26
616
FTUS44 KLZK 171746
TAFPBF
TAF
KPBF 171746Z 1718/1818 23004KT P6SM SCT015 BKN100
     FM172000 29006KT P6SM BKN100
     FM180500 01004KT P6SM VCSH SCT050 BKN100 OVC250
     FM181000 05004KT 4SM -SHRA SCT010 BKN018 OVC025=

USA.gov is the U.S. government's official web portal to all federal, state and local government web resources and services.